CPA16 VHHH-RJAA
Flight info
| Callsign | CPA16 |
|---|---|
| Flight time | N/A |
| Altitude | 39000 |
| Route | DALOL V631 ENVAR M750 MUKEP Y891 AGIMO Y89 GUPER Y81 RUTAS |
| Aircraft | A35K/H-SDE2E3GHIJ3J4J5LM1ORWXY/LB1D1 |
Departure
| Time | 2026-05-07 07:25 |
|---|---|
| Airport | Hong Kong International Airport (VHHH) |
Arrival
| Time | N/A |
|---|---|
| Airport | Narita International Airport (RJAA) |
| Time | Latitude | Longitude | Altitude | Speed | Heading |
|---|---|---|---|---|---|
| 2026-05-07 07:25 | 22.16305 | 114.19389 | 11655 ft | 379 kts | 146° |
| 2026-05-07 07:25 | 22.14158 | 114.21092 | 12185 ft | 386 kts | 146° |
| 2026-05-07 07:25 | 22.11978 | 114.22820 | 12772 ft | 392 kts | 146° |
| 2026-05-07 07:26 | 22.09768 | 114.24570 | 13351 ft | 397 kts | 146° |
| 2026-05-07 07:26 | 22.07529 | 114.26342 | 13916 ft | 401 kts | 146° |
| 2026-05-07 07:26 | 22.05270 | 114.28136 | 14451 ft | 405 kts | 146° |
| 2026-05-07 07:26 | 22.02992 | 114.29932 | 15003 ft | 408 kts | 146° |
| 2026-05-07 07:27 | 22.00691 | 114.31743 | 15515 ft | 412 kts | 146° |
| 2026-05-07 07:27 | 21.98370 | 114.33571 | 16041 ft | 415 kts | 146° |
| 2026-05-07 07:27 | 21.96028 | 114.35416 | 16571 ft | 418 kts | 146° |
| 2026-05-07 07:27 | 21.93668 | 114.37280 | 17102 ft | 421 kts | 146° |
| 2026-05-07 07:28 | 21.91294 | 114.39149 | 17607 ft | 425 kts | 146° |
| 2026-05-07 07:28 | 21.88897 | 114.41036 | 18122 ft | 428 kts | 146° |
| 2026-05-07 07:28 | 21.86615 | 114.43125 | 18552 ft | 435 kts | 136° |
| 2026-05-07 07:28 | 21.84783 | 114.45736 | 18958 ft | 442 kts | 121° |
| 2026-05-07 07:29 | 21.83584 | 114.48797 | 19416 ft | 446 kts | 108° |
| 2026-05-07 07:29 | 21.82726 | 114.52019 | 19836 ft | 450 kts | 106° |
| 2026-05-07 07:29 | 21.81910 | 114.55281 | 20254 ft | 453 kts | 106° |
| 2026-05-07 07:29 | 21.81082 | 114.58561 | 20700 ft | 456 kts | 106° |
| 2026-05-07 07:30 | 21.80243 | 114.61854 | 21132 ft | 459 kts | 106° |
| 2026-05-07 07:30 | 21.79391 | 114.65171 | 21581 ft | 461 kts | 106° |
| 2026-05-07 07:30 | 21.78531 | 114.68502 | 22031 ft | 464 kts | 106° |
| 2026-05-07 07:30 | 21.77662 | 114.71860 | 22468 ft | 467 kts | 106° |
| 2026-05-07 07:31 | 21.76798 | 114.75193 | 22898 ft | 470 kts | 106° |
| 2026-05-07 07:31 | 21.75917 | 114.78589 | 23340 ft | 473 kts | 106° |
| 2026-05-07 07:31 | 21.75044 | 114.82009 | 23721 ft | 476 kts | 104° |
| 2026-05-07 07:31 | 21.74458 | 114.85530 | 24077 ft | 479 kts | 95° |
| 2026-05-07 07:32 | 21.74266 | 114.89115 | 24459 ft | 482 kts | 91° |
| 2026-05-07 07:32 | 21.74218 | 114.92726 | 24852 ft | 485 kts | 89° |
| 2026-05-07 07:32 | 21.74239 | 114.96360 | 25264 ft | 487 kts | 89° |
| 2026-05-07 07:32 | 21.74281 | 115.00021 | 25697 ft | 491 kts | 89° |
| 2026-05-07 07:33 | 21.74319 | 115.03701 | 26129 ft | 494 kts | 89° |
| 2026-05-07 07:33 | 21.74344 | 115.07410 | 26595 ft | 497 kts | 89° |
| 2026-05-07 07:33 | 21.74356 | 115.11142 | 27063 ft | 501 kts | 89° |
| 2026-05-07 07:33 | 21.74359 | 115.14897 | 27519 ft | 504 kts | 89° |
| 2026-05-07 07:34 | 21.74355 | 115.18682 | 27987 ft | 508 kts | 89° |
| 2026-05-07 07:34 | 21.74349 | 115.22486 | 28446 ft | 511 kts | 89° |
| 2026-05-07 07:34 | 21.74343 | 115.26328 | 28878 ft | 515 kts | 89° |
| 2026-05-07 07:34 | 21.74334 | 115.30188 | 29301 ft | 518 kts | 89° |
| 2026-05-07 07:35 | 21.74324 | 115.34078 | 29728 ft | 522 kts | 90° |
| 2026-05-07 07:35 | 21.74312 | 115.37991 | 30101 ft | 525 kts | 90° |
| 2026-05-07 07:35 | 21.74301 | 115.41933 | 30443 ft | 528 kts | 89° |
| 2026-05-07 07:35 | 21.74288 | 115.45891 | 30777 ft | 530 kts | 89° |
| 2026-05-07 07:36 | 21.74276 | 115.49871 | 31107 ft | 533 kts | 89° |
| 2026-05-07 07:36 | 21.74262 | 115.53857 | 31426 ft | 535 kts | 89° |
| 2026-05-07 07:36 | 21.74248 | 115.57861 | 31816 ft | 535 kts | 89° |
| 2026-05-07 07:36 | 21.74230 | 115.61851 | 32306 ft | 533 kts | 89° |
| 2026-05-07 07:37 | 21.74214 | 115.65828 | 32786 ft | 531 kts | 89° |
| 2026-05-07 07:37 | 21.74199 | 115.69800 | 33242 ft | 530 kts | 89° |
| 2026-05-07 07:37 | 21.74184 | 115.73708 | 33671 ft | 529 kts | 88° |
| 2026-05-07 07:37 | 21.74167 | 115.77706 | 34088 ft | 528 kts | 88° |
| 2026-05-07 07:38 | 21.74149 | 115.81648 | 34456 ft | 527 kts | 88° |
| 2026-05-07 07:38 | 21.74131 | 115.85536 | 34804 ft | 526 kts | 88° |
| 2026-05-07 07:38 | 21.74111 | 115.89468 | 35143 ft | 526 kts | 88° |
| 2026-05-07 07:38 | 21.74090 | 115.93392 | 35481 ft | 525 kts | 88° |
| 2026-05-07 07:39 | 21.74068 | 115.97319 | 35832 ft | 524 kts | 88° |
| 2026-05-07 07:39 | 21.74045 | 116.01234 | 36180 ft | 523 kts | 88° |
| 2026-05-07 07:39 | 21.74021 | 116.05148 | 36492 ft | 523 kts | 88° |
| 2026-05-07 07:39 | 21.73996 | 116.09051 | 36803 ft | 522 kts | 88° |
| 2026-05-07 07:40 | 21.73971 | 116.12955 | 37120 ft | 522 kts | 88° |
| 2026-05-07 07:40 | 21.73944 | 116.16853 | 37424 ft | 521 kts | 88° |
| 2026-05-07 07:40 | 21.73917 | 116.20744 | 37723 ft | 520 kts | 88° |
| 2026-05-07 07:40 | 21.73889 | 116.24635 | 38010 ft | 520 kts | 88° |
| 2026-05-07 07:41 | 21.73860 | 116.28519 | 38322 ft | 518 kts | 87° |
| 2026-05-07 07:41 | 21.73830 | 116.32386 | 38626 ft | 517 kts | 87° |
| 2026-05-07 07:41 | 21.73799 | 116.36252 | 38838 ft | 517 kts | 87° |
| 2026-05-07 07:42 | 21.73735 | 116.43995 | 38924 ft | 518 kts | 87° |
| 2026-05-07 07:42 | 21.73668 | 116.51738 | 38923 ft | 518 kts | 87° |
| 2026-05-07 07:43 | 21.73596 | 116.59483 | 38921 ft | 518 kts | 88° |
| 2026-05-07 07:43 | 21.73521 | 116.67220 | 38922 ft | 518 kts | 88° |
| 2026-05-07 07:44 | 21.73502 | 116.74963 | 38918 ft | 516 kts | 83° |
| 2026-05-07 07:44 | 21.74891 | 116.82429 | 38926 ft | 507 kts | 67° |
| 2026-05-07 07:45 | 21.77322 | 116.89537 | 38922 ft | 506 kts | 64° |
| 2026-05-07 07:45 | 21.79910 | 116.96573 | 38922 ft | 506 kts | 64° |
| 2026-05-07 07:46 | 21.82494 | 117.03610 | 38921 ft | 506 kts | 64° |
| 2026-05-07 07:46 | 21.85052 | 117.10661 | 38922 ft | 506 kts | 65° |
| 2026-05-07 07:47 | 21.87595 | 117.17719 | 38923 ft | 506 kts | 65° |
| 2026-05-07 07:47 | 21.89709 | 117.23595 | 38922 ft | 507 kts | 65° |
| 2026-05-07 07:48 | 21.92663 | 117.31821 | 38923 ft | 507 kts | 65° |
| 2026-05-07 07:48 | 21.95204 | 117.38910 | 38926 ft | 507 kts | 65° |
| 2026-05-07 07:49 | 21.97326 | 117.44835 | 38924 ft | 507 kts | 65° |
| 2026-05-07 07:49 | 22.00230 | 117.51715 | 38922 ft | 502 kts | 56° |
| 2026-05-07 07:50 | 22.03762 | 117.58151 | 38922 ft | 502 kts | 54° |
| 2026-05-07 07:50 | 22.07439 | 117.64603 | 38922 ft | 502 kts | 54° |
| 2026-05-07 07:51 | 22.11077 | 117.70973 | 38927 ft | 502 kts | 54° |
| 2026-05-07 07:51 | 22.14726 | 117.77397 | 38934 ft | 502 kts | 54° |
| 2026-05-07 07:52 | 22.18361 | 117.83823 | 38919 ft | 501 kts | 54° |
| 2026-05-07 07:52 | 22.21991 | 117.90249 | 38926 ft | 501 kts | 54° |
| 2026-05-07 07:53 | 22.25627 | 117.96692 | 38927 ft | 501 kts | 54° |
| 2026-05-07 07:53 | 22.29265 | 118.03125 | 38925 ft | 501 kts | 54° |
| 2026-05-07 07:54 | 22.32978 | 118.09486 | 38923 ft | 501 kts | 53° |
| 2026-05-07 07:54 | 22.36709 | 118.15831 | 38932 ft | 502 kts | 54° |
| 2026-05-07 07:55 | 22.40444 | 118.22227 | 38925 ft | 503 kts | 53° |
| 2026-05-07 07:55 | 22.44118 | 118.28664 | 38925 ft | 503 kts | 54° |
| 2026-05-07 07:56 | 22.47759 | 118.35125 | 38925 ft | 503 kts | 54° |
| 2026-05-07 07:56 | 22.51399 | 118.41582 | 38925 ft | 503 kts | 54° |
| 2026-05-07 07:57 | 22.55025 | 118.48005 | 38925 ft | 503 kts | 54° |
| 2026-05-07 07:57 | 22.58677 | 118.54468 | 38925 ft | 502 kts | 54° |
| 2026-05-07 07:58 | 22.62352 | 118.60912 | 38922 ft | 502 kts | 54° |
| 2026-05-07 07:58 | 22.66029 | 118.67356 | 38925 ft | 502 kts | 54° |
| 2026-05-07 07:59 | 22.69697 | 118.73802 | 38925 ft | 502 kts | 54° |
| 2026-05-07 07:59 | 22.73358 | 118.80250 | 38925 ft | 502 kts | 54° |
| 2026-05-07 08:00 | 22.77018 | 118.86705 | 38925 ft | 502 kts | 54° |
| 2026-05-07 08:00 | 22.80650 | 118.93118 | 38930 ft | 502 kts | 54° |
| 2026-05-07 08:01 | 22.84304 | 118.99578 | 38927 ft | 502 kts | 54° |
| 2026-05-07 08:01 | 22.87952 | 119.06036 | 38925 ft | 502 kts | 54° |
| 2026-05-07 08:02 | 22.91600 | 119.12503 | 38925 ft | 502 kts | 54° |
| 2026-05-07 08:02 | 22.95247 | 119.18976 | 38922 ft | 502 kts | 54° |
| 2026-05-07 08:03 | 22.98866 | 119.25405 | 38919 ft | 502 kts | 55° |
| 2026-05-07 08:03 | 23.02502 | 119.31876 | 38920 ft | 503 kts | 54° |
| 2026-05-07 08:04 | 23.06157 | 119.38387 | 38919 ft | 504 kts | 54° |
| 2026-05-07 08:04 | 23.09809 | 119.44899 | 38918 ft | 505 kts | 54° |
| 2026-05-07 08:05 | 23.13461 | 119.51423 | 38915 ft | 505 kts | 54° |
| 2026-05-07 08:05 | 23.17086 | 119.57907 | 38914 ft | 502 kts | 55° |
| 2026-05-07 08:06 | 23.20705 | 119.64389 | 38906 ft | 500 kts | 55° |
| 2026-05-07 08:06 | 23.24339 | 119.70891 | 38909 ft | 506 kts | 54° |
| 2026-05-07 08:07 | 23.27978 | 119.77411 | 38909 ft | 508 kts | 54° |
| 2026-05-07 08:07 | 23.31641 | 119.83991 | 38908 ft | 508 kts | 54° |
| 2026-05-07 08:08 | 23.35337 | 119.90521 | 38906 ft | 504 kts | 50° |
| 2026-05-07 08:08 | 23.39934 | 119.96169 | 38911 ft | 495 kts | 40° |
| 2026-05-07 08:09 | 23.44869 | 120.01328 | 38916 ft | 496 kts | 38° |
| 2026-05-07 08:09 | 23.49924 | 120.06485 | 38917 ft | 497 kts | 38° |
| 2026-05-07 08:10 | 23.54965 | 120.11648 | 38913 ft | 497 kts | 38° |
| 2026-05-07 08:10 | 23.59983 | 120.16820 | 38917 ft | 496 kts | 38° |
| 2026-05-07 08:11 | 23.64987 | 120.21993 | 38924 ft | 495 kts | 38° |
| 2026-05-07 08:11 | 23.69963 | 120.27143 | 38915 ft | 496 kts | 38° |
| 2026-05-07 08:12 | 23.74977 | 120.32335 | 38919 ft | 496 kts | 38° |
| 2026-05-07 08:12 | 23.79960 | 120.37502 | 38919 ft | 496 kts | 38° |
| 2026-05-07 08:13 | 23.84977 | 120.42710 | 38922 ft | 495 kts | 38° |
| 2026-05-07 08:13 | 23.89964 | 120.47895 | 38924 ft | 494 kts | 38° |
| 2026-05-07 08:14 | 23.94926 | 120.53093 | 38927 ft | 494 kts | 38° |
| 2026-05-07 08:14 | 23.99840 | 120.58283 | 38929 ft | 494 kts | 38° |
| 2026-05-07 08:15 | 24.04782 | 120.63507 | 38938 ft | 494 kts | 38° |
| 2026-05-07 08:15 | 24.09734 | 120.68743 | 38952 ft | 494 kts | 38° |
| 2026-05-07 08:16 | 24.14687 | 120.73986 | 38937 ft | 494 kts | 38° |
| 2026-05-07 08:16 | 24.19603 | 120.79192 | 38944 ft | 494 kts | 38° |
| 2026-05-07 08:17 | 24.24548 | 120.84436 | 38947 ft | 494 kts | 38° |
| 2026-05-07 08:17 | 24.29488 | 120.89681 | 38956 ft | 494 kts | 38° |
| 2026-05-07 08:18 | 24.34426 | 120.94932 | 38961 ft | 494 kts | 38° |
| 2026-05-07 08:18 | 24.39362 | 121.00183 | 38959 ft | 494 kts | 38° |
| 2026-05-07 08:19 | 24.43960 | 121.05827 | 38956 ft | 501 kts | 44° |